Time;durP1;ratioP1;P1;durP2;ratioP2;P2;SDS_P1;SDS_P2;PMS_P1;PMS_P2;Temp;Humidity;BMP_temperature;BMP_pressure;BME280_temperature;BME280_humidity;BME280_pressure;Samples;Min_cycle;Max_cycle;Signal;HPM_P1;HPM_P2
2022/09/16 00:01:30;;;;;;;9.00;2.60;;;;;;;21.56;62.88;99560.62;108105;1241;74312;-73
2022/09/16 00:03:58;;;;;;;9.20;3.00;;;;;;;21.47;63.53;99561.33;108117;1241;60860;-73
2022/09/16 00:06:29;;;;;;;6.70;2.60;;;;;;;21.40;64.46;99561.92;108150;1241;59528;-72
2022/09/16 00:09:00;;;;;;;6.30;2.90;;;;;;;21.29;65.13;99560.51;108068;1241;73042;-73
2022/09/16 00:11:33;;;;;;;8.10;2.50;;;;;;;21.14;66.41;99558.23;108058;1241;61546;-72
2022/09/16 00:14:03;;;;;;;6.90;2.70;;;;;;;21.06;65.84;99557.17;108004;1241;69573;-73
2022/09/16 00:16:32;;;;;;;7.10;3.00;;;;;;;20.98;67.19;99554.98;108064;1241;62856;-72
2022/09/16 00:19:02;;;;;;;5.10;2.80;;;;;;;20.87;67.79;99554.60;107948;1241;63381;-72
2022/09/16 00:21:31;;;;;;;6.90;2.70;;;;;;;20.76;69.60;99554.69;107970;1241;62973;-70
2022/09/16 00:23:59;;;;;;;7.40;2.70;;;;;;;20.68;68.27;99553.91;108018;1241;75379;-70
2022/09/16 00:26:28;;;;;;;4.40;2.50;;;;;;;20.51;70.32;99554.55;108029;1241;62384;-74
2022/09/16 00:28:57;;;;;;;5.80;3.00;;;;;;;20.47;70.55;99558.29;108031;1241;70929;-73
2022/09/16 00:31:26;;;;;;;6.80;3.00;;;;;;;20.37;71.14;99559.98;108071;1241;63180;-72
2022/09/16 00:33:55;;;;;;;4.70;2.70;;;;;;;20.41;68.78;99555.63;107955;1243;59457;-74
2022/09/16 00:36:24;;;;;;;4.90;3.30;;;;;;;20.47;67.95;99552.63;108034;1241;59489;-74
2022/09/16 00:38:54;;;;;;;5.40;3.00;;;;;;;20.54;67.25;99555.54;108068;1241;63853;-74
2022/09/16 00:41:27;;;;;;;8.10;3.20;;;;;;;20.61;66.52;99551.54;108131;1241;71394;-71
2022/09/16 00:44:06;;;;;;;7.70;2.90;;;;;;;20.70;66.10;99557.66;108103;1241;61640;-70
2022/09/16 00:46:42;;;;;;;6.80;2.60;;;;;;;20.76;65.79;99556.80;108049;1243;62356;-70
2022/09/16 00:49:16;;;;;;;4.40;2.70;;;;;;;20.86;65.84;99557.48;108099;1241;62953;-71
2022/09/16 00:51:49;;;;;;;6.30;3.30;;;;;;;20.88;65.70;99554.19;108078;1243;59556;-71
2022/09/16 00:54:19;;;;;;;5.80;2.80;;;;;;;20.90;65.66;99555.48;108069;1241;62984;-71
2022/09/16 00:56:54;;;;;;;5.90;3.00;;;;;;;20.89;65.61;99559.77;106391;1241;2207821;-72
2022/09/16 00:59:29;;;;;;;9.10;3.00;;;;;;;20.87;65.50;99552.30;108114;1241;59682;-77
2022/09/16 01:02:05;;;;;;;6.20;2.90;;;;;;;20.84;65.32;99548.11;107983;1241;63988;-76
2022/09/16 01:04:43;;;;;;;8.10;3.50;;;;;;;20.85;65.03;99546.80;107749;1244;59619;-75
2022/09/16 01:07:12;;;;;;;4.50;2.80;;;;;;;20.87;65.01;99548.64;109035;1241;61609;-72
2022/09/16 01:09:41;;;;;;;5.20;2.90;;;;;;;20.91;64.60;99547.40;108093;1241;64229;-70
2022/09/16 01:12:10;;;;;;;4.40;2.90;;;;;;;20.93;64.51;99549.52;107921;1243;60887;-71
2022/09/16 01:14:53;;;;;;;7.30;2.70;;;;;;;20.96;64.01;99545.08;108077;1241;69689;-70
2022/09/16 01:17:59;;;;;;;5.70;2.80;;;;;;;21.05;63.64;99548.95;108064;1241;63630;-71
2022/09/16 01:20:58;;;;;;;5.90;2.70;;;;;;;21.15;63.25;99555.91;108114;1241;59691;-72
2022/09/16 01:24:22;;;;;;;8.40;2.80;;;;;;;21.19;63.05;99567.66;108095;1241;59552;-72
2022/09/16 01:27:37;;;;;;;6.80;2.70;;;;;;;21.18;62.88;99564.65;108138;1242;75775;-73
2022/09/16 01:30:53;;;;;;;8.00;2.80;;;;;;;21.22;62.37;99566.44;108104;1243;62420;-72
2022/09/16 01:33:33;;;;;;;5.90;2.80;;;;;;;21.29;62.04;99572.16;108310;1240;71633;-70
2022/09/16 01:36:35;;;;;;;6.90;2.80;;;;;;;21.31;61.84;99576.89;108264;1241;62883;-75
2022/09/16 01:39:29;;;;;;;5.50;3.10;;;;;;;21.34;61.67;99579.02;108135;1241;59560;-75
2022/09/16 01:42:38;;;;;;;6.30;2.70;;;;;;;21.40;61.26;99582.36;107845;1243;59683;-74
2022/09/16 01:45:20;;;;;;;6.50;2.90;;;;;;;21.49;60.88;99583.64;108086;1241;76014;-70
2022/09/16 01:48:00;;;;;;;5.30;2.80;;;;;;;21.60;60.10;99580.17;108094;1241;61233;-72
2022/09/16 01:50:56;;;;;;;8.20;3.00;;;;;;;21.76;59.30;99578.97;108184;1241;69969;-71
2022/09/16 01:53:44;;;;;;;5.10;2.90;;;;;;;21.88;59.07;99580.22;108082;1241;64113;-70
2022/09/16 01:56:51;;;;;;;5.40;3.10;;;;;;;21.96;58.67;99586.04;108122;1241;58997;-72
2022/09/16 01:59:45;;;;;;;7.10;2.90;;;;;;;22.01;58.51;99589.34;108106;1242;59498;-70
2022/09/16 02:02:26;;;;;;;4.80;2.90;;;;;;;22.07;58.06;99599.64;108105;1242;74750;-72
2022/09/16 02:05:00;;;;;;;8.00;2.80;;;;;;;22.08;57.96;99600.50;108024;1241;71946;-74
2022/09/16 02:07:35;;;;;;;5.30;2.50;;;;;;;22.04;58.27;99605.19;107918;1241;71565;-73
2022/09/16 02:10:23;;;;;;;7.50;3.20;;;;;;;22.03;58.12;99597.91;108139;1241;74406;-74
2022/09/16 02:13:02;;;;;;;5.40;2.60;;;;;;;22.05;58.02;99604.23;108096;1241;59476;-76
2022/09/16 02:15:33;;;;;;;6.30;2.70;;;;;;;22.06;58.00;99606.65;108191;1241;60416;-73
2022/09/16 02:18:12;;;;;;;4.30;2.50;;;;;;;22.00;58.06;99604.67;108540;1241;75003;-73
2022/09/16 02:20:46;;;;;;;5.70;2.40;;;;;;;21.93;58.48;99607.57;109119;1241;71979;-72
2022/09/16 02:23:22;;;;;;;5.20;2.80;;;;;;;21.88;58.50;99614.45;108375;1241;59579;-80
2022/09/16 02:25:54;;;;;;;6.80;2.90;;;;;;;21.81;58.74;99613.26;108104;1242;62821;-73
2022/09/16 02:28:32;;;;;;;7.60;2.90;;;;;;;21.73;58.94;99611.95;108168;1242;59594;-74
2022/09/16 02:31:06;;;;;;;5.20;2.60;;;;;;;21.65;59.19;99607.55;108132;1241;59638;-71
2022/09/16 02:34:01;;;;;;;5.10;2.90;;;;;;;21.57;59.62;99605.73;108031;1241;74185;-71
2022/09/16 02:36:33;;;;;;;5.10;2.70;;;;;;;21.50;59.88;99603.17;108160;1242;61246;-69
2022/09/16 02:39:10;;;;;;;4.10;2.90;;;;;;;21.44;60.20;99603.36;108147;1241;69142;-71
2022/09/16 02:41:40;;;;;;;5.60;3.00;;;;;;;21.37;60.30;99610.77;107955;1242;63713;-70
2022/09/16 02:44:10;;;;;;;5.20;3.00;;;;;;;21.33;60.45;99613.59;107980;1244;59594;-72
2022/09/16 02:47:02;;;;;;;7.50;2.80;;;;;;;21.30;60.72;99608.61;108232;1241;61128;-72
2022/09/16 02:49:38;;;;;;;6.90;3.10;;;;;;;21.27;60.67;99607.29;108204;1241;75534;-70
2022/09/16 02:52:23;;;;;;;7.00;3.10;;;;;;;21.25;60.86;99603.20;107877;1244;61592;-71
2022/09/16 02:54:59;;;;;;;8.10;3.10;;;;;;;21.22;60.94;99598.02;107984;1243;59247;-72
2022/09/16 02:57:29;;;;;;;9.60;3.50;;;;;;;21.17;61.14;99606.73;108159;1241;63182;-70
2022/09/16 02:59:58;;;;;;;6.70;3.20;;;;;;;21.12;61.14;99617.05;108181;1241;59577;-72
2022/09/16 03:02:27;;;;;;;4.90;3.10;;;;;;;21.12;61.53;99624.30;108182;1241;61442;-71
2022/09/16 03:04:56;;;;;;;6.90;3.00;;;;;;;21.06;61.74;99625.60;108031;1241;74048;-71
2022/09/16 03:07:25;;;;;;;7.10;3.10;;;;;;;20.97;62.70;99627.98;108045;1241;72180;-74
2022/09/16 03:09:55;;;;;;;5.20;3.10;;;;;;;20.87;62.99;99635.37;107766;1241;59600;-71
2022/09/16 03:12:46;;;;;;;7.60;3.40;;;;;;;20.73;64.27;99641.20;107770;1241;73945;-71
2022/09/16 03:15:23;;;;;;;5.70;2.80;;;;;;;20.60;64.70;99648.11;108011;1240;62755;-70
2022/09/16 03:18:14;;;;;;;8.10;3.60;;;;;;;20.50;65.87;99649.64;108068;1241;59506;-70
2022/09/16 03:21:26;;;;;;;6.60;3.60;;;;;;;20.42;65.08;99654.86;108115;1241;73654;-73
2022/09/16 03:23:59;;;;;;;6.30;3.00;;;;;;;20.35;65.68;99655.48;108145;1241;71249;-73
2022/09/16 03:26:46;;;;;;;6.10;3.30;;;;;;;20.27;67.31;99658.81;108150;1241;59585;-70
2022/09/16 03:29:44;;;;;;;20.40;13.60;;;;;;;20.20;67.37;99657.64;108022;1241;62540;-74
2022/09/16 03:32:20;;;;;;;13.50;9.10;;;;;;;20.07;70.58;99652.70;108009;1241;59897;-70
2022/09/16 03:35:11;;;;;;;5.70;3.50;;;;;;;20.01;69.45;99649.95;107783;1243;59692;-70
2022/09/16 03:37:41;;;;;;;7.60;4.90;;;;;;;20.01;68.55;99646.77;107693;1242;73900;-73
2022/09/16 03:40:14;;;;;;;7.40;3.60;;;;;;;20.02;69.15;99642.77;107970;1241;73086;-71
2022/09/16 03:42:44;;;;;;;8.40;3.40;;;;;;;20.01;69.54;99646.14;108002;1242;60513;-71
2022/09/16 03:45:19;;;;;;;7.80;3.20;;;;;;;20.01;68.56;99648.52;108122;1241;74370;-66
2022/09/16 03:47:51;;;;;;;7.20;3.20;;;;;;;20.06;68.35;99658.02;108143;1241;59573;-70
2022/09/16 03:50:20;;;;;;;8.60;3.50;;;;;;;20.10;68.24;99661.20;107986;1241;59385;-68
2022/09/16 03:52:49;;;;;;;5.40;3.20;;;;;;;20.13;67.92;99664.11;107783;1241;64501;-69
2022/09/16 03:55:18;;;;;;;7.90;4.30;;;;;;;20.20;67.39;99668.73;108170;1241;62244;-71
2022/09/16 03:57:47;;;;;;;6.20;3.10;;;;;;;20.26;67.55;99664.00;107884;1241;70962;-69
2022/09/16 04:00:15;;;;;;;4.10;2.50;;;;;;;20.33;67.24;99664.95;108119;1241;62913;-70
2022/09/16 04:02:45;;;;;;;4.40;2.90;;;;;;;20.36;67.14;99660.60;108136;1241;59617;-68
2022/09/16 04:05:14;;;;;;;9.30;4.70;;;;;;;20.39;67.46;99663.26;108044;1241;59669;-70
2022/09/16 04:07:43;;;;;;;14.20;4.50;;;;;;;20.46;66.97;99662.31;108069;1240;75519;-68
2022/09/16 04:10:12;;;;;;;9.00;3.80;;;;;;;20.52;66.80;99662.05;108188;1241;71075;-67
2022/09/16 04:12:40;;;;;;;10.60;4.00;;;;;;;20.60;66.56;99667.62;108144;1241;70782;-68
2022/09/16 04:15:10;;;;;;;8.10;3.50;;;;;;;20.62;66.41;99669.29;108096;1241;63066;-68
2022/09/16 04:17:39;;;;;;;11.50;3.80;;;;;;;20.57;66.88;99672.19;107858;1244;59238;-69
2022/09/16 04:20:09;;;;;;;7.90;3.90;;;;;;;20.58;66.63;99677.50;108103;1241;59553;-69
2022/09/16 04:22:37;;;;;;;8.10;4.10;;;;;;;20.60;66.66;99676.48;108105;1241;74891;-70
2022/09/16 04:25:07;;;;;;;8.30;4.30;;;;;;;20.60;66.50;99676.89;108154;1241;61611;-65
2022/09/16 04:27:37;;;;;;;7.70;3.80;;;;;;;20.63;66.79;99680.81;108154;1241;59596;-74
2022/09/16 04:30:07;;;;;;;17.20;4.40;;;;;;;20.67;66.87;99689.31;108380;1241;74188;-76
2022/09/16 04:32:35;;;;;;;19.70;6.40;;;;;;;20.58;67.76;99690.14;108439;1241;59626;-76
2022/09/16 04:35:05;;;;;;;11.40;5.20;;;;;;;20.54;69.38;99694.59;108015;1241;59556;-77
2022/09/16 04:37:33;;;;;;;7.50;3.50;;;;;;;20.55;68.20;99700.76;108430;1241;63791;-79
2022/09/16 04:40:02;;;;;;;21.20;4.60;;;;;;;20.58;67.79;99707.00;108426;1241;61663;-77
2022/09/16 04:42:32;;;;;;;19.80;5.20;;;;;;;20.59;67.83;99713.48;108085;1241;60024;-78
2022/09/16 04:45:01;;;;;;;9.70;3.30;;;;;;;20.59;68.11;99719.87;108181;1244;63262;-76
2022/09/16 04:47:30;;;;;;;6.40;3.10;;;;;;;20.61;68.20;99729.23;108362;1241;61173;-77
2022/09/16 04:49:58;;;;;;;7.50;3.50;;;;;;;20.62;68.48;99731.55;108200;1242;60281;-79
2022/09/16 04:52:30;;;;;;;10.50;3.80;;;;;;;20.66;68.20;99735.77;108036;1244;63451;-78
2022/09/16 04:54:58;;;;;;;8.90;3.60;;;;;;;20.69;67.93;99734.52;108222;1241;61682;-77
2022/09/16 04:57:31;;;;;;;9.60;4.30;;;;;;;20.73;67.64;99739.34;108276;1241;59885;-82
2022/09/16 05:00:00;;;;;;;12.90;5.10;;;;;;;20.74;67.63;99740.39;108225;1241;62464;-81
2022/09/16 05:02:29;;;;;;;9.70;3.80;;;;;;;20.70;68.16;99743.73;108146;1241;62101;-78
2022/09/16 05:04:58;;;;;;;6.70;4.00;;;;;;;20.68;67.73;99743.36;108090;1244;58973;-77
2022/09/16 05:07:28;;;;;;;12.40;4.00;;;;;;;20.61;68.23;99747.75;108109;1241;74092;-79
2022/09/16 05:09:57;;;;;;;9.60;6.40;;;;;;;20.56;68.60;99750.23;108225;1241;62266;-76
2022/09/16 05:12:25;;;;;;;12.50;6.00;;;;;;;20.50;69.74;99751.27;108034;1244;70545;-78
2022/09/16 05:14:54;;;;;;;9.10;6.20;;;;;;;20.42;70.24;99754.64;108173;1241;62940;-81
2022/09/16 05:17:23;;;;;;;10.60;5.60;;;;;;;20.31;71.30;99768.41;108052;1241;61979;-79
2022/09/16 05:20:13;;;;;;;10.30;5.80;;;;;;;20.18;71.95;99775.23;108106;1241;61701;-79
2022/09/16 05:22:41;;;;;;;12.00;5.90;;;;;;;20.05;72.87;99776.80;108011;1242;65469;-79
2022/09/16 05:25:10;;;;;;;9.40;5.50;;;;;;;19.93;73.41;99771.17;107897;1244;61659;-80
2022/09/16 05:27:39;;;;;;;10.10;5.40;;;;;;;19.84;74.57;99773.48;108183;1241;69610;-81
2022/09/16 05:30:09;;;;;;;13.90;5.80;;;;;;;19.81;74.55;99774.56;108145;1241;62853;-82
2022/09/16 05:32:38;;;;;;;7.80;5.70;;;;;;;19.79;74.28;99776.38;107968;1244;62923;-81
2022/09/16 05:35:07;;;;;;;11.10;5.90;;;;;;;19.76;75.17;99778.98;108096;1241;59625;-80
2022/09/16 05:37:35;;;;;;;10.70;6.50;;;;;;;19.73;75.97;99785.46;108421;1241;74423;-78
2022/09/16 05:40:05;;;;;;;11.40;6.30;;;;;;;19.70;76.67;99791.15;108946;1241;62359;-77
2022/09/16 05:42:34;;;;;;;10.00;6.00;;;;;;;19.66;77.54;99803.67;108828;1244;59243;-78
2022/09/16 05:45:03;;;;;;;9.10;6.60;;;;;;;19.62;77.90;99808.12;108265;1241;63330;-81
2022/09/16 05:47:32;;;;;;;12.50;6.70;;;;;;;19.56;78.28;99806.29;108239;1241;59576;-79
2022/09/16 05:50:01;;;;;;;14.40;7.20;;;;;;;19.51;79.62;99806.95;108220;1241;57966;-82
2022/09/16 05:52:29;;;;;;;13.50;7.40;;;;;;;19.47;79.14;99807.39;108281;1241;73826;-81
2022/09/16 05:54:58;;;;;;;12.30;7.80;;;;;;;19.42;81.66;99803.73;108307;1241;73922;-80
2022/09/16 05:57:27;;;;;;;15.70;8.50;;;;;;;19.43;80.64;99805.88;108346;1241;59804;-81
2022/09/16 05:59:56;;;;;;;13.90;8.40;;;;;;;19.44;80.54;99810.00;108083;1242;72843;-81
2022/09/16 06:02:24;;;;;;;15.80;7.90;;;;;;;19.46;81.15;99810.48;108285;1241;59011;-79
2022/09/16 06:04:53;;;;;;;13.00;8.00;;;;;;;19.49;81.50;99813.43;108013;1244;59582;-82
2022/09/16 06:07:22;;;;;;;11.20;6.80;;;;;;;19.51;81.07;99813.63;108337;1241;63050;-84
2022/09/16 06:09:51;;;;;;;9.50;6.00;;;;;;;19.52;83.48;99846.60;108036;1242;72786;-81
2022/09/16 06:12:20;;;;;;;7.50;5.60;;;;;;;19.51;84.22;99847.27;108188;1243;60614;-83
2022/09/16 06:14:49;;;;;;;11.10;5.50;;;;;;;19.46;85.31;99843.04;108080;1244;63279;-82
2022/09/16 06:17:18;;;;;;;7.60;4.70;;;;;;;19.44;85.64;99844.33;108327;1241;63305;-82
2022/09/16 06:19:46;;;;;;;7.40;4.10;;;;;;;19.42;86.53;99849.52;108287;1241;59016;-81
2022/09/16 06:22:15;;;;;;;4.80;3.40;;;;;;;19.49;85.43;99852.71;108333;1241;63017;-78
2022/09/16 06:24:44;;;;;;;4.60;2.50;;;;;;;19.55;84.88;99849.39;108176;1244;72292;-80
2022/09/16 06:27:13;;;;;;;4.30;2.30;;;;;;;19.60;84.11;99856.49;108058;1244;70432;-82
2022/09/16 06:29:41;;;;;;;5.00;2.10;;;;;;;19.63;84.15;99867.96;108224;1242;72689;-80
2022/09/16 06:32:10;;;;;;;2.80;1.90;;;;;;;19.63;83.53;99867.27;107944;1244;59556;-82
2022/09/16 06:34:39;;;;;;;4.30;2.00;;;;;;;19.67;82.47;99865.99;108046;1244;60478;-81
2022/09/16 06:37:11;;;;;;;2.60;1.90;;;;;;;19.69;82.10;99872.39;108257;1242;74309;-78
2022/09/16 06:39:41;;;;;;;3.40;2.20;;;;;;;19.68;81.80;99872.57;108157;1241;71395;-81
2022/09/16 06:42:10;;;;;;;4.40;2.60;;;;;;;19.67;81.72;99875.30;107833;1244;72106;-79
2022/09/16 06:44:40;;;;;;;5.20;2.40;;;;;;;19.69;81.71;99875.06;108079;1244;74262;-81
2022/09/16 06:47:12;;;;;;;4.60;2.50;;;;;;;19.69;81.19;99881.88;107994;1244;59007;-80
2022/09/16 06:49:40;;;;;;;5.30;2.50;;;;;;;19.66;81.33;99881.89;108025;1241;60399;-80
2022/09/16 06:52:10;;;;;;;4.20;2.70;;;;;;;19.67;80.70;99881.61;108241;1241;63956;-84
2022/09/16 06:54:39;;;;;;;4.20;2.50;;;;;;;19.64;81.03;99889.48;108078;1244;60845;-81
2022/09/16 06:57:09;;;;;;;3.70;2.90;;;;;;;19.54;81.75;99893.73;108120;1241;70467;-82
2022/09/16 06:59:39;;;;;;;6.10;3.50;;;;;;;19.55;81.35;99898.22;108000;1241;75248;-83
2022/09/16 07:02:10;;;;;;;7.50;2.90;;;;;;;19.56;81.45;99902.67;108256;1241;59607;-83
2022/09/16 07:04:39;;;;;;;5.20;2.80;;;;;;;19.54;81.46;99903.14;108016;1241;59593;-81
2022/09/16 07:07:08;;;;;;;5.30;3.20;;;;;;;19.50;82.17;99912.30;108271;1241;74642;-81
2022/09/16 07:09:39;;;;;;;4.80;3.30;;;;;;;19.41;83.10;99912.54;108132;1244;61250;-83
2022/09/16 07:12:07;;;;;;;8.80;3.10;;;;;;;19.45;82.69;99912.63;108107;1241;59605;-80
2022/09/16 07:14:36;;;;;;;5.10;3.40;;;;;;;19.47;82.38;99908.56;108135;1244;63372;-81
2022/09/16 07:17:10;;;;;;;5.60;3.40;;;;;;;19.58;82.90;99908.81;108156;1243;59583;-81
2022/09/16 07:19:41;;;;;;;4.80;2.90;;;;;;;19.85;82.33;99912.27;108095;1241;61329;-77
2022/09/16 07:22:10;;;;;;;4.80;3.20;;;;;;;20.14;80.40;99916.26;108256;1241;74058;-79
2022/09/16 07:24:40;;;;;;;4.50;2.90;;;;;;;20.30;78.75;99925.16;108343;1241;61686;-72
2022/09/16 07:27:11;;;;;;;4.00;3.40;;;;;;;20.35;77.94;99923.52;108289;1241;59999;-78
2022/09/16 07:29:39;;;;;;;5.60;3.60;;;;;;;20.36;77.81;99921.00;108265;1241;73890;-78
2022/09/16 07:32:08;;;;;;;5.70;3.50;;;;;;;20.39;78.12;99930.28;108257;1241;59600;-74
2022/09/16 07:34:38;;;;;;;3.60;3.10;;;;;;;20.42;78.42;99936.39;108255;1240;57882;-78
2022/09/16 07:37:06;;;;;;;4.70;2.60;;;;;;;20.54;77.63;99932.08;108294;1241;74794;-79
2022/09/16 07:39:35;;;;;;;4.40;2.80;;;;;;;20.70;76.12;99938.19;108260;1241;70653;-76
2022/09/16 07:42:04;;;;;;;3.90;2.90;;;;;;;20.78;75.66;99940.84;107945;1243;59316;-76
2022/09/16 07:44:33;;;;;;;3.00;2.30;;;;;;;20.92;75.11;99942.43;108260;1240;73376;-77
2022/09/16 07:47:02;;;;;;;3.90;2.40;;;;;;;20.99;72.89;99940.99;108265;1241;59508;-77
2022/09/16 07:49:31;;;;;;;3.90;2.20;;;;;;;20.99;71.74;99941.69;108283;1241;59038;-77
2022/09/16 07:52:00;;;;;;;3.60;2.20;;;;;;;21.04;71.28;99933.22;108222;1241;73591;-77
2022/09/16 07:54:29;;;;;;;3.30;2.10;;;;;;;21.13;70.87;99935.59;108195;1241;71974;-78
2022/09/16 07:56:57;;;;;;;3.00;2.00;;;;;;;21.19;70.12;99934.59;108209;1241;69262;-79
2022/09/16 07:59:26;;;;;;;3.30;2.30;;;;;;;21.28;69.66;99935.50;108007;1243;63936;-77
2022/09/16 08:01:55;;;;;;;3.80;2.20;;;;;;;21.41;69.70;99948.14;107901;1243;58182;-76
2022/09/16 08:04:24;;;;;;;3.70;1.80;;;;;;;21.51;69.62;99957.36;108301;1241;58526;-79
2022/09/16 08:06:53;;;;;;;2.40;1.80;;;;;;;21.50;68.79;99946.90;107966;1241;74453;-79
2022/09/16 08:09:21;;;;;;;3.30;1.90;;;;;;;21.49;68.30;99946.13;108252;1241;61681;-77
2022/09/16 08:12:11;;;;;;;2.70;2.40;;;;;;;21.47;68.72;99946.16;108168;1241;62807;-75
2022/09/16 08:14:40;;;;;;;3.30;3.00;;;;;;;21.55;68.17;99962.85;108115;1241;63157;-80
2022/09/16 08:17:09;;;;;;;4.70;3.80;;;;;;;21.42;68.95;99960.41;107893;1243;59627;-77
2022/09/16 08:19:40;;;;;;;3.60;3.30;;;;;;;21.60;68.14;99965.73;107758;1241;60569;-76
2022/09/16 08:22:09;;;;;;;2.70;2.50;;;;;;;21.55;67.28;99962.27;108069;1241;64245;-75
2022/09/16 08:24:38;;;;;;;4.40;2.80;;;;;;;21.58;67.13;99962.91;108093;1241;72072;-76
2022/09/16 08:27:07;;;;;;;3.90;3.50;;;;;;;21.72;66.67;99968.91;107851;1241;60698;-76
2022/09/16 08:29:36;;;;;;;3.70;3.40;;;;;;;21.77;66.30;99977.05;108059;1240;73076;-74
2022/09/16 08:32:04;;;;;;;4.50;3.10;;;;;;;21.77;66.04;99984.73;108085;1241;59632;-78
2022/09/16 08:34:33;;;;;;;3.80;3.50;;;;;;;21.42;67.18;99990.15;108082;1240;58590;-74
2022/09/16 08:37:02;;;;;;;3.20;2.60;;;;;;;21.17;68.15;99989.26;108056;1241;75858;-79
2022/09/16 08:39:31;;;;;;;4.00;3.70;;;;;;;21.00;69.12;99992.55;108149;1241;72872;-75
2022/09/16 08:42:42;;;;;;;3.80;3.50;;;;;;;20.99;68.95;99984.70;108153;1241;60660;-72
2022/09/16 08:45:27;;;;;;;3.70;3.40;;;;;;;21.01;69.51;99990.17;107944;1242;62647;-75
2022/09/16 08:48:41;;;;;;;3.60;3.30;;;;;;;21.22;68.08;99998.23;108176;1241;59564;-75
2022/09/16 08:51:16;;;;;;;4.10;3.80;;;;;;;21.27;67.52;100004.20;108257;1241;59037;-79
2022/09/16 08:54:11;;;;;;;4.80;3.90;;;;;;;21.12;67.95;99993.35;108162;1241;74410;-78
2022/09/16 08:56:43;;;;;;;12.70;3.80;;;;;;;21.02;68.41;100009.96;107809;1244;62280;-75
2022/09/16 08:59:20;;;;;;;3.60;2.90;;;;;;;21.12;68.24;100012.59;107807;1242;59221;-74
2022/09/16 09:02:31;;;;;;;3.30;3.00;;;;;;;21.22;68.01;100015.55;108025;1241;73883;-78
2022/09/16 09:05:02;;;;;;;3.10;2.80;;;;;;;21.36;66.63;100018.02;107475;1241;61239;-76
2022/09/16 09:08:03;;;;;;;3.30;2.40;;;;;;;21.46;66.02;100027.11;108092;1241;59613;-73
2022/09/16 09:10:40;;;;;;;2.70;2.50;;;;;;;21.53;65.09;100025.98;107657;1241;74846;-75
2022/09/16 09:13:32;;;;;;;4.10;2.80;;;;;;;21.54;64.88;100030.80;108075;1241;62016;-77
2022/09/16 09:16:51;;;;;;;5.10;3.10;;;;;;;21.65;64.49;100024.91;108063;1244;70604;-77
2022/09/16 09:19:35;;;;;;;3.00;2.70;;;;;;;21.79;63.50;100023.48;108229;1241;73177;-77
2022/09/16 09:22:19;;;;;;;3.50;2.90;;;;;;;21.77;63.76;100014.27;108147;1241;58572;-79
2022/09/16 09:25:18;;;;;;;6.40;2.80;;;;;;;21.78;63.90;100016.32;108231;1241;60482;-73
2022/09/16 09:28:30;;;;;;;3.50;2.40;;;;;;;21.91;63.53;100015.49;108196;1241;74345;-79
2022/09/16 09:31:07;;;;;;;2.60;2.40;;;;;;;22.18;62.26;100022.98;107917;1244;60708;-77
2022/09/16 09:34:01;;;;;;;2.80;2.30;;;;;;;22.38;61.85;100022.02;108217;1241;59184;-76
2022/09/16 09:36:44;;;;;;;3.30;2.40;;;;;;;22.66;61.03;100022.17;107990;1241;73446;-77
2022/09/16 09:40:16;;;;;;;2.80;2.40;;;;;;;22.58;61.33;100027.70;107873;1240;62079;-75
2022/09/16 09:42:56;;;;;;;3.00;2.50;;;;;;;22.46;61.24;100029.33;107840;1241;61894;-77
2022/09/16 09:45:37;;;;;;;3.10;2.40;;;;;;;22.55;61.12;100029.95;108271;1241;63598;-75
2022/09/16 09:48:30;;;;;;;3.40;2.30;;;;;;;22.45;61.10;100034.13;108030;1244;61641;-75
2022/09/16 09:51:04;;;;;;;3.10;2.20;;;;;;;22.55;59.69;100033.30;108260;1241;68600;-75
2022/09/16 09:53:48;;;;;;;2.90;1.90;;;;;;;22.70;58.63;100040.27;108013;1244;62892;-77
2022/09/16 09:56:30;;;;;;;3.40;1.90;;;;;;;22.91;57.76;100034.97;108023;1241;57972;-76
2022/09/16 09:59:29;;;;;;;2.50;2.00;;;;;;;23.08;57.44;100042.52;107811;1244;58699;-76
2022/09/16 10:02:02;;;;;;;3.20;2.10;;;;;;;23.04;57.86;100048.84;108095;1241;64749;-77
2022/09/16 10:04:37;;;;;;;4.20;2.40;;;;;;;23.07;57.89;100045.67;108068;1241;61644;-76
2022/09/16 10:07:07;;;;;;;2.70;1.90;;;;;;;22.98;57.39;100055.04;108013;1241;71535;-74
2022/09/16 10:09:44;;;;;;;3.00;1.80;;;;;;;23.00;56.65;100043.55;108028;1241;73531;-74
2022/09/16 10:12:12;;;;;;;2.80;1.40;;;;;;;23.09;55.47;100048.34;108226;1241;61706;-75
2022/09/16 10:14:45;;;;;;;2.20;1.50;;;;;;;23.13;54.74;100044.81;108247;1241;59680;-77
2022/09/16 10:17:16;;;;;;;3.40;2.30;;;;;;;23.41;54.37;100037.97;107901;1239;74773;-74
2022/09/16 10:20:19;;;;;;;3.20;1.70;;;;;;;23.54;54.51;100039.52;108026;1244;61210;-76
2022/09/16 10:23:02;;;;;;;4.70;2.10;;;;;;;23.73;54.48;100047.48;107978;1241;70603;-75
2022/09/16 10:25:32;;;;;;;5.10;1.70;;;;;;;23.96;54.05;100045.00;108005;1241;74305;-77
2022/09/16 10:28:05;;;;;;;2.40;1.50;;;;;;;24.09;52.52;100039.38;108280;1240;61886;-77
2022/09/16 10:30:51;;;;;;;2.80;2.00;;;;;;;24.29;52.86;100042.24;107669;1241;59490;-77
2022/09/16 10:33:29;;;;;;;4.80;2.10;;;;;;;24.36;52.01;100046.17;108323;1241;73094;-72
2022/09/16 10:36:04;;;;;;;1.50;1.30;;;;;;;24.47;51.46;100053.33;108305;1241;62023;-75
2022/09/16 10:38:42;;;;;;;2.30;1.70;;;;;;;24.65;51.43;100044.72;108287;1241;59376;-73
2022/09/16 10:41:16;;;;;;;3.20;1.80;;;;;;;24.84;49.83;100043.52;108246;1241;73121;-73
2022/09/16 10:43:53;;;;;;;2.20;1.60;;;;;;;24.95;49.28;100040.20;108233;1241;62028;-76
2022/09/16 10:46:25;;;;;;;3.60;1.80;;;;;;;25.07;49.41;100043.40;108250;1241;57714;-77
2022/09/16 10:49:08;;;;;;;3.20;1.80;;;;;;;25.11;48.75;100047.89;108092;1244;63774;-75
2022/09/16 10:51:37;;;;;;;3.10;1.90;;;;;;;25.05;49.03;100051.10;108286;1241;72287;-73
2022/09/16 10:54:23;;;;;;;3.30;2.00;;;;;;;24.73;49.88;100050.61;108214;1241;60788;-81
2022/09/16 10:56:52;;;;;;;3.90;2.10;;;;;;;24.74;50.08;100047.02;107991;1244;63290;-76
2022/09/16 10:59:21;;;;;;;3.00;1.80;;;;;;;24.63;50.34;100039.41;107918;1244;59603;-75
2022/09/16 11:02:31;;;;;;;3.40;2.00;;;;;;;24.50;50.47;100035.56;108045;1241;60798;-77
2022/09/16 11:05:10;;;;;;;2.40;1.70;;;;;;;24.27;51.03;100036.95;108240;1241;63530;-78
2022/09/16 11:08:37;;;;;;;2.20;1.60;;;;;;;24.55;50.06;100032.49;108268;1240;72255;-75
2022/09/16 11:11:41;;;;;;;2.30;1.60;;;;;;;24.46;50.98;100015.98;108022;1244;70350;-77
2022/09/16 11:14:30;;;;;;;2.40;1.60;;;;;;;24.80;50.05;100010.73;107606;1241;74671;-76
2022/09/16 11:17:46;;;;;;;3.40;1.90;;;;;;;24.94;49.72;100013.14;108289;1241;59601;-76
2022/09/16 11:20:35;;;;;;;2.60;1.60;;;;;;;25.08;49.79;100009.27;107855;1241;59801;-77
2022/09/16 11:23:55;;;;;;;2.40;1.70;;;;;;;25.22;49.10;100007.18;108259;1241;72390;-77
2022/09/16 11:26:48;;;;;;;2.20;1.70;;;;;;;25.51;48.46;100007.04;108018;1242;62928;-77
2022/09/16 11:29:55;;;;;;;2.80;1.70;;;;;;;25.63;47.95;99998.33;108241;1240;70966;-79
2022/09/16 11:32:48;;;;;;;2.40;1.70;;;;;;;25.59;47.17;99995.37;108250;1241;62337;-78
2022/09/16 11:35:59;;;;;;;3.50;2.40;;;;;;;25.84;46.20;99996.98;108180;1241;60496;-79
2022/09/16 11:38:48;;;;;;;5.90;1.70;;;;;;;26.46;45.35;99995.80;108245;1241;60783;-78
2022/09/16 11:41:36;;;;;;;2.60;1.70;;;;;;;26.65;44.24;99994.63;108278;1241;64174;-75
2022/09/16 11:44:23;;;;;;;2.20;1.70;;;;;;;26.38;43.97;99996.52;107974;1244;60899;-77
2022/09/16 11:47:29;;;;;;;2.50;1.60;;;;;;;26.53;43.70;99995.37;108014;1243;60058;-77
2022/09/16 11:50:59;;;;;;;4.40;1.80;;;;;;;27.14;43.36;99993.86;108207;1242;73901;-78
2022/09/16 11:54:24;;;;;;;2.50;1.60;;;;;;;27.09;43.55;100002.14;107396;1248;61104;-78
2022/09/16 11:57:00;;;;;;;2.60;2.00;;;;;;;27.47;42.49;99995.63;107372;1247;59622;-80
2022/09/16 11:59:43;;;;;;;2.50;1.60;;;;;;;27.46;42.09;99993.63;107905;1244;75557;-77
2022/09/16 12:02:52;;;;;;;5.20;1.60;;;;;;;27.33;42.45;99992.35;107887;1244;61479;-75
2022/09/16 12:05:38;;;;;;;2.00;1.40;;;;;;;27.64;42.03;99996.66;107971;1244;59996;-74
2022/09/16 12:08:51;;;;;;;1.90;1.40;;;;;;;28.16;41.18;100000.28;107772;1243;73923;-80
2022/09/16 12:11:48;;;;;;;1.10;1.00;;;;;;;27.95;40.27;100008.88;107990;1244;59574;-78